CheckWX is a tool to help pilots better visualize weather data.  It is not intended as a substitute for an official pre-flight weather briefing.

23:59:13 UTC

UIII TAF
Irkutsk Airport
Irkutsk, Russian Federation
TAF UIII 222300Z 2300/2324 10003MPS 9999 NSC BECMG 2303/2305 16005MPS

Jan-23@
00:00 UTC

Jan-23 @ 00:00 UTC

Jan-23@
03:00 UTC

Jan-23 @ 03:00 UTC

TAF UIII 222300Z 2300/2324 10003MPS 9999 NSC
Wind
  • 100° at 6 KTS
Cloud Levels
  • No significant clouds

Jan-23@
03:00 UTC

Jan-23 @ 03:00 UTC

Jan-24@
00:00 UTC

Jan-24 @ 00:00 UTC

BECMG 2303/2305 16005MPS

Becoming

Becoming Conditions expected by Thu, Jan 23, 2020 @ 05:00 UTC

Wind
  • 160° at 10 KTS
Cloud Levels
  • No significant clouds